AAY26 KOKC-KAUS
Flight info
| Callsign | AAY26 |
|---|---|
| Flight time | 0h 58m |
| Altitude | 31000 |
| Route | MUDDE3 MOOSE BROBB WINDU SEWZY6 |
| Aircraft | A320/M-SDE3FGHIRWY/LB1 |
Departure
| Time | 2026-04-24 19:06 |
|---|---|
| Airport | OKC Will Rogers World Airport (KOKC) |
Arrival
| Time | 2026-04-24 20:05 |
|---|---|
| Airport | Austin Bergstrom International Airport (KAUS) |
| Time | Latitude | Longitude | Altitude | Speed | Heading |
|---|---|---|---|---|---|
| 2026-04-24 18:54 | 35.39581 | -97.59267 | 1297 ft | 2 kts | 264° |
| 2026-04-24 18:55 | 35.39582 | -97.59225 | 1297 ft | 2 kts | 269° |
| 2026-04-24 18:55 | 35.39582 | -97.59220 | 1297 ft | 0 kts | 269° |
| 2026-04-24 18:59 | 35.39581 | -97.59224 | 1297 ft | 3 kts | 255° |
| 2026-04-24 18:59 | 35.39549 | -97.59201 | 1292 ft | 7 kts | 118° |
| 2026-04-24 19:00 | 35.39509 | -97.59174 | 1296 ft | 7 kts | 164° |
| 2026-04-24 19:00 | 35.39479 | -97.59128 | 1294 ft | 8 kts | 99° |
| 2026-04-24 19:00 | 35.39454 | -97.59073 | 1294 ft | 7 kts | 142° |
| 2026-04-24 19:00 | 35.39410 | -97.59063 | 1295 ft | 10 kts | 178° |
| 2026-04-24 19:01 | 35.39317 | -97.59063 | 1294 ft | 14 kts | 180° |
| 2026-04-24 19:01 | 35.39220 | -97.59064 | 1292 ft | 14 kts | 180° |
| 2026-04-24 19:01 | 35.39121 | -97.59064 | 1291 ft | 14 kts | 180° |
| 2026-04-24 19:01 | 35.39034 | -97.59063 | 1293 ft | 11 kts | 179° |
| 2026-04-24 19:02 | 35.38964 | -97.59062 | 1294 ft | 9 kts | 179° |
| 2026-04-24 19:02 | 35.38893 | -97.59061 | 1293 ft | 14 kts | 179° |
| 2026-04-24 19:02 | 35.38780 | -97.59062 | 1291 ft | 16 kts | 180° |
| 2026-04-24 19:02 | 35.38672 | -97.59063 | 1293 ft | 14 kts | 180° |
| 2026-04-24 19:03 | 35.38585 | -97.59062 | 1294 ft | 11 kts | 179° |
| 2026-04-24 19:03 | 35.38503 | -97.59061 | 1294 ft | 17 kts | 180° |
| 2026-04-24 19:03 | 35.38357 | -97.59062 | 1292 ft | 19 kts | 180° |
| 2026-04-24 19:03 | 35.38214 | -97.59062 | 1295 ft | 22 kts | 180° |
| 2026-04-24 19:04 | 35.38058 | -97.59063 | 1294 ft | 21 kts | 179° |
| 2026-04-24 19:04 | 35.37919 | -97.59063 | 1292 ft | 16 kts | 180° |
| 2026-04-24 19:04 | 35.37843 | -97.59024 | 1293 ft | 7 kts | 123° |
| 2026-04-24 19:04 | 35.37838 | -97.59008 | 1293 ft | 2 kts | 107° |
| 2026-04-24 19:05 | 35.37835 | -97.58940 | 1293 ft | 12 kts | 86° |
| 2026-04-24 19:05 | 35.37900 | -97.58892 | 1292 ft | 13 kts | 359° |
| 2026-04-24 19:05 | 35.38023 | -97.58893 | 1291 ft | 34 kts | 360° |
| 2026-04-24 19:05 | 35.38530 | -97.58895 | 1292 ft | 108 kts | 359° |
| 2026-04-24 19:06 | 35.39468 | -97.58897 | 1432 ft | 147 kts | 1° |
| 2026-04-24 19:06 | 35.40483 | -97.58909 | 2122 ft | 148 kts | 2° |
| 2026-04-24 19:06 | 35.41495 | -97.58962 | 2904 ft | 146 kts | 353° |
| 2026-04-24 19:06 | 35.42533 | -97.59441 | 3317 ft | 173 kts | 331° |
| 2026-04-24 19:07 | 35.43490 | -97.60489 | 3635 ft | 200 kts | 316° |
| 2026-04-24 19:07 | 35.44449 | -97.61859 | 3994 ft | 226 kts | 314° |
| 2026-04-24 19:07 | 35.45527 | -97.63429 | 4438 ft | 253 kts | 314° |
| 2026-04-24 19:07 | 35.46565 | -97.65304 | 4979 ft | 280 kts | 294° |
| 2026-04-24 19:08 | 35.46851 | -97.67719 | 5802 ft | 294 kts | 262° |
| 2026-04-24 19:08 | 35.46089 | -97.70027 | 6729 ft | 297 kts | 229° |
| 2026-04-24 19:08 | 35.44428 | -97.71489 | 7599 ft | 297 kts | 196° |
| 2026-04-24 19:08 | 35.42411 | -97.71779 | 8554 ft | 293 kts | 171° |
| 2026-04-24 19:09 | 35.40400 | -97.71365 | 9569 ft | 293 kts | 166° |
| 2026-04-24 19:09 | 35.38405 | -97.70865 | 10520 ft | 293 kts | 167° |
| 2026-04-24 19:09 | 35.36396 | -97.70329 | 11141 ft | 308 kts | 168° |
| 2026-04-24 19:09 | 35.34225 | -97.69771 | 11565 ft | 327 kts | 171° |
| 2026-04-24 19:10 | 35.31964 | -97.69227 | 12278 ft | 335 kts | 171° |
| 2026-04-24 19:10 | 35.29663 | -97.68693 | 13085 ft | 339 kts | 172° |
| 2026-04-24 19:10 | 35.27353 | -97.68165 | 13864 ft | 343 kts | 173° |
| 2026-04-24 19:10 | 35.24963 | -97.67618 | 14593 ft | 347 kts | 174° |
| 2026-04-24 19:11 | 35.22580 | -97.67067 | 15302 ft | 351 kts | 174° |
| 2026-04-24 19:11 | 35.20166 | -97.66509 | 16012 ft | 355 kts | 174° |
| 2026-04-24 19:11 | 35.17729 | -97.65945 | 16723 ft | 359 kts | 175° |
| 2026-04-24 19:11 | 35.15266 | -97.65373 | 17433 ft | 362 kts | 175° |
| 2026-04-24 19:12 | 35.12769 | -97.64793 | 18114 ft | 367 kts | 175° |
| 2026-04-24 19:12 | 35.10243 | -97.64207 | 18717 ft | 371 kts | 175° |
| 2026-04-24 19:12 | 35.07693 | -97.63615 | 19338 ft | 374 kts | 175° |
| 2026-04-24 19:12 | 35.05124 | -97.63019 | 19955 ft | 378 kts | 175° |
| 2026-04-24 19:13 | 35.03412 | -97.62620 | 20360 ft | 380 kts | 175° |
| 2026-04-24 19:13 | 34.99919 | -97.61805 | 21172 ft | 384 kts | 175° |
| 2026-04-24 19:13 | 34.97280 | -97.61194 | 21777 ft | 388 kts | 175° |
| 2026-04-24 19:13 | 34.94613 | -97.60579 | 22375 ft | 392 kts | 175° |
| 2026-04-24 19:14 | 34.91924 | -97.59958 | 22962 ft | 395 kts | 175° |
| 2026-04-24 19:14 | 34.89209 | -97.59330 | 23527 ft | 399 kts | 175° |
| 2026-04-24 19:14 | 34.86475 | -97.58700 | 24019 ft | 402 kts | 175° |
| 2026-04-24 19:14 | 34.83751 | -97.58076 | 24501 ft | 404 kts | 175° |
| 2026-04-24 19:15 | 34.80975 | -97.57441 | 24980 ft | 407 kts | 175° |
| 2026-04-24 19:15 | 34.78179 | -97.56796 | 25446 ft | 410 kts | 175° |
| 2026-04-24 19:15 | 34.75367 | -97.56145 | 25911 ft | 413 kts | 175° |
| 2026-04-24 19:15 | 34.72534 | -97.55491 | 26366 ft | 415 kts | 175° |
| 2026-04-24 19:16 | 34.66823 | -97.54176 | 27239 ft | 420 kts | 175° |
| 2026-04-24 19:16 | 34.63939 | -97.53510 | 27663 ft | 423 kts | 175° |
| 2026-04-24 19:16 | 34.61034 | -97.52840 | 28078 ft | 426 kts | 175° |
| 2026-04-24 19:17 | 34.58116 | -97.52170 | 28491 ft | 428 kts | 175° |
| 2026-04-24 19:17 | 34.55178 | -97.51493 | 28886 ft | 431 kts | 175° |
| 2026-04-24 19:17 | 34.52219 | -97.50812 | 29277 ft | 434 kts | 175° |
| 2026-04-24 19:17 | 34.49242 | -97.50131 | 29656 ft | 436 kts | 175° |
| 2026-04-24 19:18 | 34.46285 | -97.49458 | 29981 ft | 439 kts | 175° |
| 2026-04-24 19:18 | 34.43277 | -97.48773 | 30275 ft | 442 kts | 175° |
| 2026-04-24 19:18 | 34.40246 | -97.48082 | 30571 ft | 445 kts | 175° |
| 2026-04-24 19:18 | 34.37200 | -97.47386 | 30717 ft | 445 kts | 175° |
| 2026-04-24 19:19 | 34.34207 | -97.46697 | 30747 ft | 429 kts | 175° |
| 2026-04-24 19:19 | 34.31334 | -97.46027 | 30747 ft | 414 kts | 175° |
| 2026-04-24 19:19 | 34.25758 | -97.44502 | 30745 ft | 409 kts | 172° |
| 2026-04-24 19:20 | 34.20246 | -97.42793 | 30746 ft | 409 kts | 172° |
| 2026-04-24 19:20 | 34.14734 | -97.41101 | 30743 ft | 408 kts | 172° |
| 2026-04-24 19:21 | 34.09212 | -97.39461 | 30743 ft | 409 kts | 173° |
| 2026-04-24 19:21 | 34.03687 | -97.37842 | 30737 ft | 408 kts | 173° |
| 2026-04-24 19:22 | 33.98166 | -97.36224 | 30733 ft | 408 kts | 173° |
| 2026-04-24 19:22 | 33.92635 | -97.34599 | 30739 ft | 409 kts | 173° |
| 2026-04-24 19:23 | 33.87111 | -97.32974 | 30743 ft | 409 kts | 173° |
| 2026-04-24 19:23 | 33.81580 | -97.31340 | 30754 ft | 410 kts | 173° |
| 2026-04-24 19:24 | 33.76044 | -97.29712 | 30764 ft | 410 kts | 173° |
| 2026-04-24 19:24 | 33.70534 | -97.28105 | 30768 ft | 410 kts | 173° |
| 2026-04-24 19:25 | 33.64991 | -97.26489 | 30767 ft | 410 kts | 173° |
| 2026-04-24 19:25 | 33.59408 | -97.24862 | 30765 ft | 410 kts | 173° |
| 2026-04-24 19:26 | 33.53896 | -97.23250 | 30762 ft | 411 kts | 173° |
| 2026-04-24 19:26 | 33.48331 | -97.21619 | 30754 ft | 411 kts | 173° |
| 2026-04-24 19:27 | 33.42763 | -97.20002 | 30747 ft | 412 kts | 173° |
| 2026-04-24 19:27 | 33.37184 | -97.18383 | 30748 ft | 412 kts | 173° |
| 2026-04-24 19:28 | 33.31606 | -97.16767 | 30755 ft | 413 kts | 173° |
| 2026-04-24 19:28 | 33.26052 | -97.15153 | 30760 ft | 413 kts | 173° |
| 2026-04-24 19:29 | 33.17661 | -97.12727 | 30761 ft | 414 kts | 173° |
| 2026-04-24 19:30 | 33.12059 | -97.11106 | 30759 ft | 414 kts | 173° |
| 2026-04-24 19:30 | 33.06457 | -97.09492 | 30751 ft | 414 kts | 174° |
| 2026-04-24 19:31 | 33.00850 | -97.07881 | 30746 ft | 415 kts | 174° |
| 2026-04-24 19:31 | 32.95233 | -97.06266 | 30751 ft | 415 kts | 174° |
| 2026-04-24 19:32 | 32.89617 | -97.04647 | 30748 ft | 415 kts | 174° |
| 2026-04-24 19:32 | 32.83999 | -97.03033 | 30748 ft | 415 kts | 174° |
| 2026-04-24 19:33 | 32.78368 | -97.01422 | 30670 ft | 418 kts | 174° |
| 2026-04-24 19:33 | 32.75538 | -97.00611 | 30420 ft | 417 kts | 174° |
| 2026-04-24 19:33 | 32.72721 | -96.99802 | 30178 ft | 416 kts | 174° |
| 2026-04-24 19:33 | 32.69913 | -96.98997 | 29942 ft | 414 kts | 174° |
| 2026-04-24 19:34 | 32.67146 | -96.98205 | 29677 ft | 413 kts | 174° |
| 2026-04-24 19:34 | 32.64357 | -96.97406 | 29400 ft | 411 kts | 174° |
| 2026-04-24 19:34 | 32.61582 | -96.96612 | 29108 ft | 410 kts | 174° |
| 2026-04-24 19:34 | 32.58819 | -96.95823 | 28833 ft | 408 kts | 174° |
| 2026-04-24 19:35 | 32.56066 | -96.95038 | 28578 ft | 406 kts | 174° |
| 2026-04-24 19:35 | 32.53324 | -96.94258 | 28312 ft | 404 kts | 174° |
| 2026-04-24 19:35 | 32.50595 | -96.93484 | 28046 ft | 402 kts | 174° |
| 2026-04-24 19:35 | 32.47879 | -96.92712 | 27778 ft | 401 kts | 174° |
| 2026-04-24 19:36 | 32.45171 | -96.91940 | 27519 ft | 399 kts | 174° |
| 2026-04-24 19:36 | 32.42481 | -96.91176 | 27264 ft | 397 kts | 174° |
| 2026-04-24 19:36 | 32.39794 | -96.90537 | 27001 ft | 389 kts | 181° |
| 2026-04-24 19:36 | 32.37123 | -96.90416 | 26748 ft | 379 kts | 191° |
| 2026-04-24 19:37 | 32.34544 | -96.90803 | 26493 ft | 370 kts | 198° |
| 2026-04-24 19:37 | 32.32012 | -96.91359 | 26243 ft | 369 kts | 198° |
| 2026-04-24 19:37 | 32.29490 | -96.91910 | 25993 ft | 368 kts | 198° |
| 2026-04-24 19:37 | 32.26974 | -96.92456 | 25738 ft | 366 kts | 198° |
| 2026-04-24 19:38 | 32.24471 | -96.92995 | 25498 ft | 365 kts | 197° |
| 2026-04-24 19:38 | 32.21977 | -96.93530 | 25251 ft | 364 kts | 197° |
| 2026-04-24 19:38 | 32.19491 | -96.94061 | 25017 ft | 362 kts | 197° |
| 2026-04-24 19:38 | 32.17015 | -96.94590 | 24783 ft | 361 kts | 197° |
| 2026-04-24 19:39 | 32.14549 | -96.95116 | 24549 ft | 359 kts | 197° |
| 2026-04-24 19:39 | 32.12094 | -96.95644 | 24317 ft | 358 kts | 197° |
| 2026-04-24 19:39 | 32.09648 | -96.96172 | 24089 ft | 357 kts | 197° |
| 2026-04-24 19:39 | 32.07210 | -96.96697 | 23860 ft | 355 kts | 197° |
| 2026-04-24 19:40 | 32.04781 | -96.97219 | 23633 ft | 354 kts | 196° |
| 2026-04-24 19:40 | 32.02362 | -96.97740 | 23407 ft | 353 kts | 196° |
| 2026-04-24 19:40 | 31.99954 | -96.98258 | 23145 ft | 351 kts | 196° |
| 2026-04-24 19:40 | 31.97583 | -96.98767 | 22877 ft | 350 kts | 196° |
| 2026-04-24 19:41 | 31.95194 | -96.99279 | 22607 ft | 348 kts | 196° |
| 2026-04-24 19:41 | 31.92814 | -96.99788 | 22342 ft | 347 kts | 197° |
| 2026-04-24 19:41 | 31.90442 | -97.00295 | 22080 ft | 346 kts | 197° |
| 2026-04-24 19:41 | 31.88078 | -97.00801 | 21820 ft | 344 kts | 196° |
| 2026-04-24 19:42 | 31.85724 | -97.01301 | 21570 ft | 343 kts | 196° |
| 2026-04-24 19:42 | 31.83366 | -97.01801 | 21317 ft | 351 kts | 196° |
| 2026-04-24 19:42 | 31.80899 | -97.02337 | 21067 ft | 364 kts | 196° |
| 2026-04-24 19:42 | 31.78405 | -97.02874 | 20820 ft | 364 kts | 196° |
| 2026-04-24 19:43 | 31.75920 | -97.03404 | 20568 ft | 362 kts | 196° |
| 2026-04-24 19:43 | 31.73441 | -97.03928 | 20330 ft | 361 kts | 196° |
| 2026-04-24 19:43 | 31.71802 | -97.04273 | 20170 ft | 361 kts | 196° |
| 2026-04-24 19:43 | 31.69331 | -97.04798 | 19925 ft | 360 kts | 196° |
| 2026-04-24 19:44 | 31.66875 | -97.05318 | 19682 ft | 359 kts | 196° |
| 2026-04-24 19:44 | 31.64422 | -97.05835 | 19442 ft | 357 kts | 196° |
| 2026-04-24 19:44 | 31.61979 | -97.06353 | 19205 ft | 356 kts | 196° |
| 2026-04-24 19:44 | 31.59546 | -97.06868 | 18971 ft | 355 kts | 196° |
| 2026-04-24 19:45 | 31.57115 | -97.07384 | 18733 ft | 354 kts | 196° |
| 2026-04-24 19:45 | 31.54682 | -97.07902 | 18507 ft | 358 kts | 196° |
| 2026-04-24 19:45 | 31.52285 | -97.08548 | 18265 ft | 349 kts | 204° |
| 2026-04-24 19:45 | 31.49993 | -97.09449 | 18032 ft | 346 kts | 204° |
| 2026-04-24 19:46 | 31.47716 | -97.10344 | 17758 ft | 345 kts | 204° |
| 2026-04-24 19:46 | 31.45444 | -97.11233 | 17493 ft | 344 kts | 204° |
| 2026-04-24 19:46 | 31.43207 | -97.12105 | 17237 ft | 342 kts | 204° |
| 2026-04-24 19:46 | 31.40956 | -97.12985 | 16979 ft | 341 kts | 204° |
| 2026-04-24 19:47 | 31.38713 | -97.13861 | 17017 ft | 339 kts | 204° |
| 2026-04-24 19:47 | 31.36437 | -97.14755 | 16981 ft | 349 kts | 204° |
| 2026-04-24 19:47 | 31.34125 | -97.15664 | 16976 ft | 352 kts | 204° |
| 2026-04-24 19:47 | 31.31794 | -97.16577 | 16974 ft | 353 kts | 204° |
| 2026-04-24 19:48 | 31.29464 | -97.17485 | 16972 ft | 353 kts | 204° |
| 2026-04-24 19:48 | 31.27130 | -97.18392 | 16978 ft | 353 kts | 204° |
| 2026-04-24 19:48 | 31.22467 | -97.20212 | 16769 ft | 353 kts | 204° |
| 2026-04-24 19:49 | 31.17828 | -97.22018 | 16265 ft | 349 kts | 204° |
| 2026-04-24 19:49 | 31.13292 | -97.23778 | 15768 ft | 337 kts | 204° |
| 2026-04-24 19:50 | 31.06741 | -97.26331 | 15035 ft | 322 kts | 204° |
| 2026-04-24 19:50 | 31.04630 | -97.27152 | 14793 ft | 318 kts | 204° |
| 2026-04-24 19:51 | 31.00520 | -97.28744 | 14315 ft | 307 kts | 204° |
| 2026-04-24 19:51 | 30.98506 | -97.29523 | 14087 ft | 303 kts | 203° |
| 2026-04-24 19:52 | 30.94537 | -97.31065 | 13618 ft | 299 kts | 204° |
| 2026-04-24 19:52 | 30.92567 | -97.31831 | 13362 ft | 298 kts | 203° |
| 2026-04-24 19:52 | 30.90602 | -97.32596 | 13104 ft | 297 kts | 203° |
| 2026-04-24 19:52 | 30.88644 | -97.33361 | 12845 ft | 296 kts | 203° |
| 2026-04-24 19:53 | 30.86692 | -97.34126 | 12590 ft | 295 kts | 203° |
| 2026-04-24 19:53 | 30.84748 | -97.34887 | 12339 ft | 294 kts | 203° |
| 2026-04-24 19:53 | 30.80909 | -97.36461 | 11849 ft | 289 kts | 209° |
| 2026-04-24 19:54 | 30.79107 | -97.37499 | 11606 ft | 288 kts | 210° |
| 2026-04-24 19:54 | 30.77311 | -97.38531 | 11366 ft | 288 kts | 209° |
| 2026-04-24 19:54 | 30.75514 | -97.39558 | 11124 ft | 287 kts | 209° |
| 2026-04-24 19:54 | 30.73723 | -97.40579 | 10885 ft | 286 kts | 209° |
| 2026-04-24 19:55 | 30.72538 | -97.41253 | 10731 ft | 286 kts | 209° |
| 2026-04-24 19:55 | 30.70179 | -97.42592 | 10417 ft | 278 kts | 208° |
| 2026-04-24 19:55 | 30.68459 | -97.43567 | 10187 ft | 272 kts | 208° |
| 2026-04-24 19:55 | 30.66775 | -97.44525 | 9957 ft | 267 kts | 208° |
| 2026-04-24 19:56 | 30.65147 | -97.45451 | 9802 ft | 263 kts | 208° |
| 2026-04-24 19:56 | 30.63509 | -97.46385 | 9464 ft | 262 kts | 208° |
| 2026-04-24 19:56 | 30.61879 | -97.47313 | 9103 ft | 261 kts | 208° |
| 2026-04-24 19:56 | 30.60260 | -97.48234 | 8850 ft | 255 kts | 208° |
| 2026-04-24 19:57 | 30.58691 | -97.49125 | 8623 ft | 248 kts | 208° |
| 2026-04-24 19:57 | 30.57143 | -97.50005 | 8262 ft | 247 kts | 208° |
| 2026-04-24 19:57 | 30.55602 | -97.50882 | 7891 ft | 247 kts | 209° |
| 2026-04-24 19:57 | 30.54056 | -97.51760 | 7519 ft | 247 kts | 209° |
| 2026-04-24 19:58 | 30.52511 | -97.52637 | 7182 ft | 246 kts | 209° |
| 2026-04-24 19:58 | 30.50972 | -97.53511 | 6832 ft | 246 kts | 210° |
| 2026-04-24 19:58 | 30.49430 | -97.54386 | 6482 ft | 247 kts | 210° |
| 2026-04-24 19:58 | 30.47886 | -97.55262 | 6129 ft | 248 kts | 210° |
| 2026-04-24 19:59 | 30.46343 | -97.56137 | 5787 ft | 246 kts | 210° |
| 2026-04-24 19:59 | 30.44807 | -97.57008 | 5596 ft | 244 kts | 209° |
| 2026-04-24 19:59 | 30.43386 | -97.58038 | 5447 ft | 238 kts | 224° |
| 2026-04-24 19:59 | 30.42214 | -97.59379 | 5095 ft | 236 kts | 228° |
| 2026-04-24 20:00 | 30.41068 | -97.60721 | 4831 ft | 232 kts | 227° |
| 2026-04-24 20:00 | 30.39926 | -97.62059 | 4464 ft | 233 kts | 227° |
| 2026-04-24 20:00 | 30.38787 | -97.63390 | 4129 ft | 232 kts | 226° |
| 2026-04-24 20:00 | 30.37659 | -97.64716 | 3811 ft | 230 kts | 225° |
| 2026-04-24 20:01 | 30.36511 | -97.66013 | 3488 ft | 230 kts | 224° |
| 2026-04-24 20:01 | 30.35387 | -97.67311 | 3181 ft | 225 kts | 225° |
| 2026-04-24 20:01 | 30.34301 | -97.68565 | 2917 ft | 214 kts | 219° |
| 2026-04-24 20:01 | 30.32994 | -97.69152 | 2720 ft | 201 kts | 178° |
| 2026-04-24 20:02 | 30.32158 | -97.68816 | 2875 ft | 181 kts | 143° |
| 2026-04-24 20:02 | 30.30613 | -97.67773 | 2582 ft | 196 kts | 176° |
| 2026-04-24 20:02 | 30.29260 | -97.67900 | 2307 ft | 198 kts | 192° |
| 2026-04-24 20:02 | 30.27916 | -97.68085 | 2082 ft | 196 kts | 181° |
| 2026-04-24 20:03 | 30.26602 | -97.68032 | 1742 ft | 183 kts | 181° |
| 2026-04-24 20:03 | 30.25421 | -97.68023 | 1593 ft | 157 kts | 180° |
| 2026-04-24 20:03 | 30.24355 | -97.67993 | 1285 ft | 150 kts | 181° |
| 2026-04-24 20:03 | 30.23347 | -97.67983 | 1049 ft | 138 kts | 179° |
| 2026-04-24 20:04 | 30.22414 | -97.67965 | 822 ft | 130 kts | 179° |
| 2026-04-24 20:04 | 30.21518 | -97.67942 | 617 ft | 127 kts | 180° |
| 2026-04-24 20:04 | 30.20661 | -97.67919 | 535 ft | 114 kts | 179° |
| 2026-04-24 20:04 | 30.19976 | -97.67902 | 526 ft | 77 kts | 178° |
| 2026-04-24 20:05 | 30.19568 | -97.67892 | 527 ft | 39 kts | 175° |
| 2026-04-24 20:05 | 30.19394 | -97.67733 | 528 ft | 30 kts | 101° |
| 2026-04-24 20:05 | 30.19396 | -97.67506 | 528 ft | 26 kts | 88° |
| 2026-04-24 20:05 | 30.19399 | -97.67398 | 528 ft | 0 kts | 88° |